sensor_id;sensor_type;location;lat;lon;timestamp;P1;durP1;ratioP1;P2;durP2;ratioP2
6434;SDS011;3250;42.694;23.278;2023-06-10T00:02:15;7.13;;;4.55;;
6434;SDS011;3250;42.694;23.278;2023-06-10T00:04:42;9.40;;;4.97;;
6434;SDS011;3250;42.694;23.278;2023-06-10T00:07:07;8.82;;;5.00;;
6434;SDS011;3250;42.694;23.278;2023-06-10T00:09:36;6.43;;;4.78;;
6434;SDS011;3250;42.694;23.278;2023-06-10T00:12:06;12.88;;;5.05;;
6434;SDS011;3250;42.694;23.278;2023-06-10T00:14:32;6.97;;;4.50;;
6434;SDS011;3250;42.694;23.278;2023-06-10T00:16:58;7.97;;;5.22;;
6434;SDS011;3250;42.694;23.278;2023-06-10T00:19:24;5.03;;;4.07;;
6434;SDS011;3250;42.694;23.278;2023-06-10T00:21:50;6.50;;;4.03;;
6434;SDS011;3250;42.694;23.278;2023-06-10T00:24:17;7.88;;;4.30;;
6434;SDS011;3250;42.694;23.278;2023-06-10T00:26:43;6.15;;;4.72;;
6434;SDS011;3250;42.694;23.278;2023-06-10T00:29:09;8.15;;;4.50;;
6434;SDS011;3250;42.694;23.278;2023-06-10T00:31:35;4.78;;;4.28;;
6434;SDS011;3250;42.694;23.278;2023-06-10T00:34:02;8.00;;;5.72;;
6434;SDS011;3250;42.694;23.278;2023-06-10T00:36:27;15.15;;;6.70;;
6434;SDS011;3250;42.694;23.278;2023-06-10T00:38:53;8.00;;;6.03;;
6434;SDS011;3250;42.694;23.278;2023-06-10T00:41:19;8.98;;;6.57;;
6434;SDS011;3250;42.694;23.278;2023-06-10T00:43:44;10.17;;;7.00;;
6434;SDS011;3250;42.694;23.278;2023-06-10T00:46:11;8.40;;;6.65;;
6434;SDS011;3250;42.694;23.278;2023-06-10T00:48:37;25.30;;;16.95;;
6434;SDS011;3250;42.694;23.278;2023-06-10T00:51:04;22.33;;;11.70;;
6434;SDS011;3250;42.694;23.278;2023-06-10T00:53:30;23.80;;;16.42;;
6434;SDS011;3250;42.694;23.278;2023-06-10T00:55:55;16.75;;;10.13;;
6434;SDS011;3250;42.694;23.278;2023-06-10T00:58:22;12.82;;;8.02;;
6434;SDS011;3250;42.694;23.278;2023-06-10T01:00:48;20.70;;;13.88;;
6434;SDS011;3250;42.694;23.278;2023-06-10T01:03:14;15.68;;;9.65;;
6434;SDS011;3250;42.694;23.278;2023-06-10T01:05:42;17.35;;;12.70;;
6434;SDS011;3250;42.694;23.278;2023-06-10T01:08:28;25.73;;;12.35;;
6434;SDS011;3250;42.694;23.278;2023-06-10T01:10:59;12.20;;;7.38;;
6434;SDS011;3250;42.694;23.278;2023-06-10T01:13:26;11.30;;;7.15;;
6434;SDS011;3250;42.694;23.278;2023-06-10T01:15:56;13.90;;;8.85;;
6434;SDS011;3250;42.694;23.278;2023-06-10T01:18:23;12.15;;;7.28;;
6434;SDS011;3250;42.694;23.278;2023-06-10T01:20:48;13.18;;;6.80;;
6434;SDS011;3250;42.694;23.278;2023-06-10T01:23:14;18.25;;;7.65;;
6434;SDS011;3250;42.694;23.278;2023-06-10T01:25:52;8.95;;;6.78;;
6434;SDS011;3250;42.694;23.278;2023-06-10T01:28:26;11.93;;;7.78;;
6434;SDS011;3250;42.694;23.278;2023-06-10T01:33:47;13.23;;;6.28;;
6434;SDS011;3250;42.694;23.278;2023-06-10T01:36:16;15.75;;;7.82;;
6434;SDS011;3250;42.694;23.278;2023-06-10T01:38:44;9.45;;;6.65;;
6434;SDS011;3250;42.694;23.278;2023-06-10T01:41:10;8.07;;;6.30;;
6434;SDS011;3250;42.694;23.278;2023-06-10T01:43:38;6.18;;;4.85;;
6434;SDS011;3250;42.694;23.278;2023-06-10T01:46:03;9.13;;;6.15;;
6434;SDS011;3250;42.694;23.278;2023-06-10T01:48:29;11.65;;;6.40;;
6434;SDS011;3250;42.694;23.278;2023-06-10T01:50:55;8.20;;;6.18;;
6434;SDS011;3250;42.694;23.278;2023-06-10T01:53:23;6.78;;;5.18;;
6434;SDS011;3250;42.694;23.278;2023-06-10T01:55:49;13.15;;;6.15;;
6434;SDS011;3250;42.694;23.278;2023-06-10T01:58:15;7.38;;;5.70;;
6434;SDS011;3250;42.694;23.278;2023-06-10T02:00:40;11.70;;;6.63;;
6434;SDS011;3250;42.694;23.278;2023-06-10T02:03:05;8.43;;;5.53;;
6434;SDS011;3250;42.694;23.278;2023-06-10T02:05:31;6.43;;;5.57;;
6434;SDS011;3250;42.694;23.278;2023-06-10T02:07:57;10.40;;;5.32;;
6434;SDS011;3250;42.694;23.278;2023-06-10T02:10:22;11.73;;;5.72;;
6434;SDS011;3250;42.694;23.278;2023-06-10T02:12:48;8.95;;;5.97;;
6434;SDS011;3250;42.694;23.278;2023-06-10T02:15:13;10.15;;;5.80;;
6434;SDS011;3250;42.694;23.278;2023-06-10T02:17:39;7.82;;;5.25;;
6434;SDS011;3250;42.694;23.278;2023-06-10T02:20:05;7.80;;;5.07;;
6434;SDS011;3250;42.694;23.278;2023-06-10T02:22:32;7.97;;;5.50;;
6434;SDS011;3250;42.694;23.278;2023-06-10T02:24:57;11.63;;;6.15;;
6434;SDS011;3250;42.694;23.278;2023-06-10T02:27:23;12.13;;;5.30;;
6434;SDS011;3250;42.694;23.278;2023-06-10T02:29:48;8.52;;;5.80;;
6434;SDS011;3250;42.694;23.278;2023-06-10T02:32:13;7.93;;;5.47;;
6434;SDS011;3250;42.694;23.278;2023-06-10T02:34:39;9.05;;;5.63;;
6434;SDS011;3250;42.694;23.278;2023-06-10T02:37:04;10.65;;;7.15;;
6434;SDS011;3250;42.694;23.278;2023-06-10T02:39:30;15.15;;;10.00;;
6434;SDS011;3250;42.694;23.278;2023-06-10T02:41:55;12.75;;;9.93;;
6434;SDS011;3250;42.694;23.278;2023-06-10T02:44:21;27.83;;;16.90;;
6434;SDS011;3250;42.694;23.278;2023-06-10T02:46:46;11.30;;;7.40;;
6434;SDS011;3250;42.694;23.278;2023-06-10T02:49:12;20.50;;;13.00;;
6434;SDS011;3250;42.694;23.278;2023-06-10T02:51:38;15.02;;;10.50;;
6434;SDS011;3250;42.694;23.278;2023-06-10T02:54:04;14.60;;;9.02;;
6434;SDS011;3250;42.694;23.278;2023-06-10T02:56:29;17.02;;;10.18;;
6434;SDS011;3250;42.694;23.278;2023-06-10T02:58:55;14.13;;;8.07;;
6434;SDS011;3250;42.694;23.278;2023-06-10T03:01:21;14.73;;;8.90;;
6434;SDS011;3250;42.694;23.278;2023-06-10T03:03:46;13.23;;;6.88;;
6434;SDS011;3250;42.694;23.278;2023-06-10T03:06:12;10.95;;;6.90;;
6434;SDS011;3250;42.694;23.278;2023-06-10T03:08:39;13.00;;;6.80;;
6434;SDS011;3250;42.694;23.278;2023-06-10T03:11:05;16.10;;;9.40;;
6434;SDS011;3250;42.694;23.278;2023-06-10T03:13:30;21.33;;;10.95;;
6434;SDS011;3250;42.694;23.278;2023-06-10T03:15:56;24.80;;;11.80;;
6434;SDS011;3250;42.694;23.278;2023-06-10T03:18:25;18.63;;;10.18;;
6434;SDS011;3250;42.694;23.278;2023-06-10T03:20:51;20.40;;;11.00;;
6434;SDS011;3250;42.694;23.278;2023-06-10T03:23:17;10.73;;;7.75;;
6434;SDS011;3250;42.694;23.278;2023-06-10T03:25:43;12.07;;;6.95;;
6434;SDS011;3250;42.694;23.278;2023-06-10T03:28:09;9.00;;;6.35;;
6434;SDS011;3250;42.694;23.278;2023-06-10T03:30:35;11.30;;;6.90;;
6434;SDS011;3250;42.694;23.278;2023-06-10T03:33:00;10.20;;;6.43;;
6434;SDS011;3250;42.694;23.278;2023-06-10T03:35:26;7.75;;;6.63;;
6434;SDS011;3250;42.694;23.278;2023-06-10T03:37:51;8.73;;;6.43;;
6434;SDS011;3250;42.694;23.278;2023-06-10T03:40:17;8.30;;;6.30;;
6434;SDS011;3250;42.694;23.278;2023-06-10T03:42:42;9.95;;;5.85;;
6434;SDS011;3250;42.694;23.278;2023-06-10T03:45:09;8.63;;;5.95;;
6434;SDS011;3250;42.694;23.278;2023-06-10T03:47:35;9.70;;;6.13;;
6434;SDS011;3250;42.694;23.278;2023-06-10T03:50:02;14.18;;;7.03;;
6434;SDS011;3250;42.694;23.278;2023-06-10T03:52:28;10.13;;;6.47;;
6434;SDS011;3250;42.694;23.278;2023-06-10T03:54:54;10.02;;;5.97;;
6434;SDS011;3250;42.694;23.278;2023-06-10T03:57:19;10.05;;;6.10;;
6434;SDS011;3250;42.694;23.278;2023-06-10T03:59:45;10.35;;;6.35;;
6434;SDS011;3250;42.694;23.278;2023-06-10T04:02:10;7.20;;;5.75;;
6434;SDS011;3250;42.694;23.278;2023-06-10T04:04:36;7.53;;;6.10;;
6434;SDS011;3250;42.694;23.278;2023-06-10T04:07:02;7.95;;;5.30;;
6434;SDS011;3250;42.694;23.278;2023-06-10T04:09:28;9.27;;;6.95;;
6434;SDS011;3250;42.694;23.278;2023-06-10T04:11:54;9.73;;;6.65;;
6434;SDS011;3250;42.694;23.278;2023-06-10T04:14:19;7.88;;;5.18;;
6434;SDS011;3250;42.694;23.278;2023-06-10T04:16:45;7.75;;;5.72;;
6434;SDS011;3250;42.694;23.278;2023-06-10T04:19:10;10.13;;;6.90;;
6434;SDS011;3250;42.694;23.278;2023-06-10T04:21:35;9.10;;;6.38;;
6434;SDS011;3250;42.694;23.278;2023-06-10T04:24:01;9.45;;;6.00;;
6434;SDS011;3250;42.694;23.278;2023-06-10T04:26:27;9.45;;;5.22;;
6434;SDS011;3250;42.694;23.278;2023-06-10T04:28:53;6.82;;;5.68;;
6434;SDS011;3250;42.694;23.278;2023-06-10T04:31:18;8.18;;;5.70;;
6434;SDS011;3250;42.694;23.278;2023-06-10T04:33:44;7.25;;;5.32;;
6434;SDS011;3250;42.694;23.278;2023-06-10T04:36:10;8.05;;;5.45;;
6434;SDS011;3250;42.694;23.278;2023-06-10T04:38:35;9.55;;;6.10;;
6434;SDS011;3250;42.694;23.278;2023-06-10T04:41:00;14.10;;;5.93;;
6434;SDS011;3250;42.694;23.278;2023-06-10T04:43:26;6.80;;;5.90;;
6434;SDS011;3250;42.694;23.278;2023-06-10T04:45:53;8.77;;;5.65;;
6434;SDS011;3250;42.694;23.278;2023-06-10T04:48:19;7.63;;;5.15;;
6434;SDS011;3250;42.694;23.278;2023-06-10T04:50:44;8.70;;;6.20;;
6434;SDS011;3250;42.694;23.278;2023-06-10T04:53:10;9.35;;;5.95;;
6434;SDS011;3250;42.694;23.278;2023-06-10T04:55:35;9.68;;;5.70;;
6434;SDS011;3250;42.694;23.278;2023-06-10T04:58:01;8.77;;;6.05;;
6434;SDS011;3250;42.694;23.278;2023-06-10T05:00:26;6.25;;;5.35;;
6434;SDS011;3250;42.694;23.278;2023-06-10T05:02:52;7.43;;;6.10;;
6434;SDS011;3250;42.694;23.278;2023-06-10T05:05:18;10.45;;;6.22;;
6434;SDS011;3250;42.694;23.278;2023-06-10T05:07:43;9.07;;;5.55;;
6434;SDS011;3250;42.694;23.278;2023-06-10T05:10:09;8.05;;;5.38;;
6434;SDS011;3250;42.694;23.278;2023-06-10T05:12:35;8.77;;;5.63;;
6434;SDS011;3250;42.694;23.278;2023-06-10T05:15:00;12.75;;;7.95;;
6434;SDS011;3250;42.694;23.278;2023-06-10T05:17:26;12.13;;;7.68;;
6434;SDS011;3250;42.694;23.278;2023-06-10T05:19:53;23.13;;;15.95;;
6434;SDS011;3250;42.694;23.278;2023-06-10T05:22:18;22.90;;;17.15;;
6434;SDS011;3250;42.694;23.278;2023-06-10T05:24:44;19.90;;;16.23;;
6434;SDS011;3250;42.694;23.278;2023-06-10T05:27:10;20.42;;;14.05;;
6434;SDS011;3250;42.694;23.278;2023-06-10T05:29:35;28.92;;;20.85;;
6434;SDS011;3250;42.694;23.278;2023-06-10T05:32:00;39.03;;;30.02;;
6434;SDS011;3250;42.694;23.278;2023-06-10T05:34:31;44.60;;;31.58;;
6434;SDS011;3250;42.694;23.278;2023-06-10T05:36:56;40.13;;;29.08;;
6434;SDS011;3250;42.694;23.278;2023-06-10T05:39:22;33.78;;;21.63;;
6434;SDS011;3250;42.694;23.278;2023-06-10T05:41:48;14.32;;;10.68;;
6434;SDS011;3250;42.694;23.278;2023-06-10T05:44:13;13.63;;;8.85;;
6434;SDS011;3250;42.694;23.278;2023-06-10T05:46:38;8.68;;;5.55;;
6434;SDS011;3250;42.694;23.278;2023-06-10T05:49:04;5.75;;;4.40;;
6434;SDS011;3250;42.694;23.278;2023-06-10T05:51:29;6.78;;;4.38;;
6434;SDS011;3250;42.694;23.278;2023-06-10T05:53:55;7.30;;;4.75;;
6434;SDS011;3250;42.694;23.278;2023-06-10T05:56:20;9.85;;;4.90;;
6434;SDS011;3250;42.694;23.278;2023-06-10T05:58:49;5.57;;;4.63;;
6434;SDS011;3250;42.694;23.278;2023-06-10T06:01:14;5.20;;;4.70;;
6434;SDS011;3250;42.694;23.278;2023-06-10T06:03:40;6.78;;;4.28;;
6434;SDS011;3250;42.694;23.278;2023-06-10T06:06:05;8.30;;;4.68;;
6434;SDS011;3250;42.694;23.278;2023-06-10T06:08:31;9.05;;;5.38;;
6434;SDS011;3250;42.694;23.278;2023-06-10T06:10:56;9.63;;;4.78;;
6434;SDS011;3250;42.694;23.278;2023-06-10T06:13:22;8.18;;;5.00;;
6434;SDS011;3250;42.694;23.278;2023-06-10T06:15:47;7.40;;;4.68;;
6434;SDS011;3250;42.694;23.278;2023-06-10T06:18:13;8.45;;;4.43;;
6434;SDS011;3250;42.694;23.278;2023-06-10T06:20:38;6.90;;;4.90;;
6434;SDS011;3250;42.694;23.278;2023-06-10T06:23:04;8.75;;;4.68;;
6434;SDS011;3250;42.694;23.278;2023-06-10T06:25:29;6.97;;;4.63;;
6434;SDS011;3250;42.694;23.278;2023-06-10T06:27:54;7.13;;;5.18;;
6434;SDS011;3250;42.694;23.278;2023-06-10T06:30:20;15.82;;;4.78;;
6434;SDS011;3250;42.694;23.278;2023-06-10T06:32:45;8.40;;;4.90;;
6434;SDS011;3250;42.694;23.278;2023-06-10T06:35:11;9.23;;;5.20;;
6434;SDS011;3250;42.694;23.278;2023-06-10T06:37:36;7.85;;;4.82;;
6434;SDS011;3250;42.694;23.278;2023-06-10T06:40:02;5.35;;;4.65;;
6434;SDS011;3250;42.694;23.278;2023-06-10T06:42:32;10.43;;;5.10;;
6434;SDS011;3250;42.694;23.278;2023-06-10T06:45:01;7.15;;;5.95;;
6434;SDS011;3250;42.694;23.278;2023-06-10T06:47:29;9.60;;;4.97;;
6434;SDS011;3250;42.694;23.278;2023-06-10T06:49:56;15.02;;;4.43;;
6434;SDS011;3250;42.694;23.278;2023-06-10T06:52:24;8.88;;;4.53;;
6434;SDS011;3250;42.694;23.278;2023-06-10T06:54:49;5.47;;;4.18;;
6434;SDS011;3250;42.694;23.278;2023-06-10T06:57:15;11.82;;;4.75;;
6434;SDS011;3250;42.694;23.278;2023-06-10T06:59:40;8.63;;;5.47;;
6434;SDS011;3250;42.694;23.278;2023-06-10T07:02:06;9.50;;;4.10;;
6434;SDS011;3250;42.694;23.278;2023-06-10T07:04:34;9.95;;;4.70;;
6434;SDS011;3250;42.694;23.278;2023-06-10T07:07:00;4.90;;;4.15;;
6434;SDS011;3250;42.694;23.278;2023-06-10T07:09:26;9.60;;;4.38;;
6434;SDS011;3250;42.694;23.278;2023-06-10T07:11:53;6.07;;;3.80;;
6434;SDS011;3250;42.694;23.278;2023-06-10T07:14:18;5.93;;;3.83;;
6434;SDS011;3250;42.694;23.278;2023-06-10T07:16:44;6.00;;;3.53;;
6434;SDS011;3250;42.694;23.278;2023-06-10T07:19:11;5.43;;;3.92;;
6434;SDS011;3250;42.694;23.278;2023-06-10T07:21:36;8.48;;;4.15;;
6434;SDS011;3250;42.694;23.278;2023-06-10T07:24:02;4.07;;;3.55;;
6434;SDS011;3250;42.694;23.278;2023-06-10T07:26:28;10.55;;;3.67;;
6434;SDS011;3250;42.694;23.278;2023-06-10T07:28:53;5.20;;;3.65;;
6434;SDS011;3250;42.694;23.278;2023-06-10T07:31:19;3.78;;;2.95;;
6434;SDS011;3250;42.694;23.278;2023-06-10T07:33:44;4.10;;;3.50;;
6434;SDS011;3250;42.694;23.278;2023-06-10T07:36:11;5.13;;;3.22;;
6434;SDS011;3250;42.694;23.278;2023-06-10T07:38:37;3.72;;;3.05;;
6434;SDS011;3250;42.694;23.278;2023-06-10T07:41:02;7.63;;;3.22;;
6434;SDS011;3250;42.694;23.278;2023-06-10T07:43:28;6.70;;;3.70;;
6434;SDS011;3250;42.694;23.278;2023-06-10T07:45:53;4.90;;;3.15;;
6434;SDS011;3250;42.694;23.278;2023-06-10T07:48:19;5.45;;;2.95;;
6434;SDS011;3250;42.694;23.278;2023-06-10T07:50:44;5.22;;;3.15;;
6434;SDS011;3250;42.694;23.278;2023-06-10T07:53:10;5.53;;;3.42;;
6434;SDS011;3250;42.694;23.278;2023-06-10T07:55:35;3.47;;;3.17;;
6434;SDS011;3250;42.694;23.278;2023-06-10T07:58:01;4.47;;;3.50;;
6434;SDS011;3250;42.694;23.278;2023-06-10T08:00:26;7.10;;;3.70;;
6434;SDS011;3250;42.694;23.278;2023-06-10T08:02:51;7.43;;;3.63;;
6434;SDS011;3250;42.694;23.278;2023-06-10T08:05:17;9.20;;;3.88;;
6434;SDS011;3250;42.694;23.278;2023-06-10T08:07:42;6.63;;;3.25;;
6434;SDS011;3250;42.694;23.278;2023-06-10T08:10:08;5.43;;;3.60;;
6434;SDS011;3250;42.694;23.278;2023-06-10T08:12:35;6.75;;;3.47;;
6434;SDS011;3250;42.694;23.278;2023-06-10T08:15:01;5.85;;;3.30;;
6434;SDS011;3250;42.694;23.278;2023-06-10T08:17:28;7.60;;;3.85;;
6434;SDS011;3250;42.694;23.278;2023-06-10T08:19:55;4.78;;;3.50;;
6434;SDS011;3250;42.694;23.278;2023-06-10T08:22:20;7.63;;;3.80;;
6434;SDS011;3250;42.694;23.278;2023-06-10T08:24:46;6.00;;;3.15;;
6434;SDS011;3250;42.694;23.278;2023-06-10T08:27:11;4.32;;;3.08;;
6434;SDS011;3250;42.694;23.278;2023-06-10T08:29:37;5.70;;;3.22;;
6434;SDS011;3250;42.694;23.278;2023-06-10T08:32:02;5.40;;;3.15;;
6434;SDS011;3250;42.694;23.278;2023-06-10T08:34:28;5.88;;;3.05;;
6434;SDS011;3250;42.694;23.278;2023-06-10T08:36:53;4.65;;;2.88;;
6434;SDS011;3250;42.694;23.278;2023-06-10T08:39:20;4.15;;;2.78;;
6434;SDS011;3250;42.694;23.278;2023-06-10T08:41:51;7.50;;;3.03;;
6434;SDS011;3250;42.694;23.278;2023-06-10T08:44:30;5.68;;;2.65;;
6434;SDS011;3250;42.694;23.278;2023-06-10T08:46:56;10.07;;;3.30;;
6434;SDS011;3250;42.694;23.278;2023-06-10T08:49:24;4.72;;;3.00;;
6434;SDS011;3250;42.694;23.278;2023-06-10T08:51:54;4.68;;;2.95;;
6434;SDS011;3250;42.694;23.278;2023-06-10T08:54:24;3.08;;;2.70;;
6434;SDS011;3250;42.694;23.278;2023-06-10T08:56:52;2.50;;;2.30;;
6434;SDS011;3250;42.694;23.278;2023-06-10T08:59:20;4.53;;;2.40;;
6434;SDS011;3250;42.694;23.278;2023-06-10T09:01:47;2.92;;;2.50;;
6434;SDS011;3250;42.694;23.278;2023-06-10T09:04:14;3.72;;;2.90;;
6434;SDS011;3250;42.694;23.278;2023-06-10T09:06:42;3.97;;;2.60;;
6434;SDS011;3250;42.694;23.278;2023-06-10T09:09:09;3.58;;;2.97;;
6434;SDS011;3250;42.694;23.278;2023-06-10T09:11:35;4.50;;;3.72;;
6434;SDS011;3250;42.694;23.278;2023-06-10T09:14:01;4.47;;;3.10;;
6434;SDS011;3250;42.694;23.278;2023-06-10T09:16:27;3.45;;;3.00;;
6434;SDS011;3250;42.694;23.278;2023-06-10T09:18:53;3.30;;;3.00;;
6434;SDS011;3250;42.694;23.278;2023-06-10T09:21:23;4.45;;;2.80;;
6434;SDS011;3250;42.694;23.278;2023-06-10T09:23:49;4.75;;;3.22;;
6434;SDS011;3250;42.694;23.278;2023-06-10T09:26:15;7.72;;;3.33;;
6434;SDS011;3250;42.694;23.278;2023-06-10T09:28:44;3.92;;;2.30;;
6434;SDS011;3250;42.694;23.278;2023-06-10T09:31:12;4.35;;;2.67;;
6434;SDS011;3250;42.694;23.278;2023-06-10T09:33:39;5.10;;;2.47;;
6434;SDS011;3250;42.694;23.278;2023-06-10T09:36:05;2.90;;;2.63;;
6434;SDS011;3250;42.694;23.278;2023-06-10T09:38:32;4.90;;;2.75;;
6434;SDS011;3250;42.694;23.278;2023-06-10T09:40:58;3.55;;;2.95;;
6434;SDS011;3250;42.694;23.278;2023-06-10T09:43:45;4.35;;;3.20;;
6434;SDS011;3250;42.694;23.278;2023-06-10T09:46:14;8.32;;;3.20;;
6434;SDS011;3250;42.694;23.278;2023-06-10T09:48:44;3.53;;;3.05;;
6434;SDS011;3250;42.694;23.278;2023-06-10T09:51:11;3.50;;;3.05;;
6434;SDS011;3250;42.694;23.278;2023-06-10T09:53:37;4.22;;;3.20;;
6434;SDS011;3250;42.694;23.278;2023-06-10T09:56:03;5.80;;;3.45;;
6434;SDS011;3250;42.694;23.278;2023-06-10T09:58:37;4.57;;;3.22;;
6434;SDS011;3250;42.694;23.278;2023-06-10T10:01:10;4.97;;;2.97;;
6434;SDS011;3250;42.694;23.278;2023-06-10T10:03:42;9.40;;;3.28;;
6434;SDS011;3250;42.694;23.278;2023-06-10T10:06:10;4.78;;;2.83;;
6434;SDS011;3250;42.694;23.278;2023-06-10T10:08:36;9.25;;;3.22;;
6434;SDS011;3250;42.694;23.278;2023-06-10T10:11:01;3.45;;;2.80;;
6434;SDS011;3250;42.694;23.278;2023-06-10T10:13:28;2.85;;;2.55;;
6434;SDS011;3250;42.694;23.278;2023-06-10T10:15:56;3.30;;;2.67;;
6434;SDS011;3250;42.694;23.278;2023-06-10T10:18:26;3.63;;;2.78;;
6434;SDS011;3250;42.694;23.278;2023-06-10T10:20:55;4.43;;;2.33;;
6434;SDS011;3250;42.694;23.278;2023-06-10T10:23:26;4.85;;;2.70;;
6434;SDS011;3250;42.694;23.278;2023-06-10T10:26:00;3.92;;;2.75;;
6434;SDS011;3250;42.694;23.278;2023-06-10T10:28:34;3.17;;;2.80;;
6434;SDS011;3250;42.694;23.278;2023-06-10T10:31:08;7.75;;;2.75;;
6434;SDS011;3250;42.694;23.278;2023-06-10T10:36:13;2.53;;;2.00;;
6434;SDS011;3250;42.694;23.278;2023-06-10T10:38:41;4.82;;;2.53;;
6434;SDS011;3250;42.694;23.278;2023-06-10T10:41:10;3.03;;;2.28;;
6434;SDS011;3250;42.694;23.278;2023-06-10T10:43:36;3.53;;;2.65;;
6434;SDS011;3250;42.694;23.278;2023-06-10T10:46:08;2.45;;;2.25;;
6434;SDS011;3250;42.694;23.278;2023-06-10T10:48:38;4.07;;;2.38;;
6434;SDS011;3250;42.694;23.278;2023-06-10T10:51:04;2.47;;;2.28;;
6434;SDS011;3250;42.694;23.278;2023-06-10T10:53:30;4.13;;;2.80;;
6434;SDS011;3250;42.694;23.278;2023-06-10T10:55:59;3.53;;;2.30;;
6434;SDS011;3250;42.694;23.278;2023-06-10T10:58:32;2.78;;;2.30;;
6434;SDS011;3250;42.694;23.278;2023-06-10T11:00:57;3.65;;;2.65;;
6434;SDS011;3250;42.694;23.278;2023-06-10T11:03:24;3.50;;;2.35;;
6434;SDS011;3250;42.694;23.278;2023-06-10T11:05:54;2.70;;;2.47;;
6434;SDS011;3250;42.694;23.278;2023-06-10T11:09:07;2.20;;;2.00;;
6434;SDS011;3250;42.694;23.278;2023-06-10T11:11:25;4.53;;;2.40;;
6434;SDS011;3250;42.694;23.278;2023-06-10T11:16:27;3.25;;;2.15;;
6434;SDS011;3250;42.694;23.278;2023-06-10T11:18:54;4.45;;;3.00;;
6434;SDS011;3250;42.694;23.278;2023-06-10T11:21:20;3.17;;;2.50;;
6434;SDS011;3250;42.694;23.278;2023-06-10T11:23:49;3.60;;;2.22;;
6434;SDS011;3250;42.694;23.278;2023-06-10T11:31:28;5.05;;;3.85;;
6434;SDS011;3250;42.694;23.278;2023-06-10T11:33:56;4.03;;;2.92;;
6434;SDS011;3250;42.694;23.278;2023-06-10T11:36:23;5.15;;;2.67;;
6434;SDS011;3250;42.694;23.278;2023-06-10T11:38:49;5.88;;;3.10;;
6434;SDS011;3250;42.694;23.278;2023-06-10T11:41:18;4.13;;;3.03;;
6434;SDS011;3250;42.694;23.278;2023-06-10T11:43:44;3.35;;;2.85;;
6434;SDS011;3250;42.694;23.278;2023-06-10T11:46:10;4.63;;;3.15;;
6434;SDS011;3250;42.694;23.278;2023-06-10T11:48:36;3.67;;;2.85;;
6434;SDS011;3250;42.694;23.278;2023-06-10T11:51:07;3.28;;;2.97;;
6434;SDS011;3250;42.694;23.278;2023-06-10T11:53:34;3.85;;;3.25;;
6434;SDS011;3250;42.694;23.278;2023-06-10T11:55:59;4.32;;;2.63;;
6434;SDS011;3250;42.694;23.278;2023-06-10T11:58:25;3.65;;;2.67;;
6434;SDS011;3250;42.694;23.278;2023-06-10T12:00:51;6.97;;;2.88;;
6434;SDS011;3250;42.694;23.278;2023-06-10T12:03:19;3.90;;;2.85;;
6434;SDS011;3250;42.694;23.278;2023-06-10T12:06:01;5.00;;;3.22;;
6434;SDS011;3250;42.694;23.278;2023-06-10T12:08:28;4.45;;;2.40;;
6434;SDS011;3250;42.694;23.278;2023-06-10T12:10:54;4.03;;;3.00;;
6434;SDS011;3250;42.694;23.278;2023-06-10T12:13:20;5.18;;;2.90;;
6434;SDS011;3250;42.694;23.278;2023-06-10T12:15:48;6.75;;;3.33;;
6434;SDS011;3250;42.694;23.278;2023-06-10T12:18:20;3.10;;;2.80;;
6434;SDS011;3250;42.694;23.278;2023-06-10T12:20:47;10.30;;;2.88;;
6434;SDS011;3250;42.694;23.278;2023-06-10T12:23:13;3.78;;;2.67;;
6434;SDS011;3250;42.694;23.278;2023-06-10T12:25:39;4.10;;;3.15;;
6434;SDS011;3250;42.694;23.278;2023-06-10T12:28:22;3.83;;;2.60;;
6434;SDS011;3250;42.694;23.278;2023-06-10T12:30:48;2.70;;;2.50;;
6434;SDS011;3250;42.694;23.278;2023-06-10T12:35:47;7.90;;;3.05;;
6434;SDS011;3250;42.694;23.278;2023-06-10T12:38:13;5.15;;;3.00;;
6434;SDS011;3250;42.694;23.278;2023-06-10T12:40:39;5.30;;;2.83;;
6434;SDS011;3250;42.694;23.278;2023-06-10T12:43:08;3.35;;;2.65;;
6434;SDS011;3250;42.694;23.278;2023-06-10T12:45:35;5.43;;;2.58;;
6434;SDS011;3250;42.694;23.278;2023-06-10T12:50:42;6.80;;;4.03;;
6434;SDS011;3250;42.694;23.278;2023-06-10T12:53:09;3.30;;;2.90;;
6434;SDS011;3250;42.694;23.278;2023-06-10T12:55:39;5.28;;;3.20;;
6434;SDS011;3250;42.694;23.278;2023-06-10T12:58:04;4.00;;;2.70;;
6434;SDS011;3250;42.694;23.278;2023-06-10T13:00:30;4.85;;;3.97;;
6434;SDS011;3250;42.694;23.278;2023-06-10T13:03:01;4.90;;;2.80;;
6434;SDS011;3250;42.694;23.278;2023-06-10T13:05:27;5.25;;;2.88;;
6434;SDS011;3250;42.694;23.278;2023-06-10T13:07:53;4.53;;;3.00;;
6434;SDS011;3250;42.694;23.278;2023-06-10T13:10:20;3.60;;;2.67;;
6434;SDS011;3250;42.694;23.278;2023-06-10T13:12:46;4.25;;;3.20;;
6434;SDS011;3250;42.694;23.278;2023-06-10T13:15:11;4.80;;;3.33;;
6434;SDS011;3250;42.694;23.278;2023-06-10T13:17:37;7.20;;;3.78;;
6434;SDS011;3250;42.694;23.278;2023-06-10T13:20:04;9.93;;;4.13;;
6434;SDS011;3250;42.694;23.278;2023-06-10T13:22:31;8.95;;;3.90;;
6434;SDS011;3250;42.694;23.278;2023-06-10T13:25:01;9.80;;;4.75;;
6434;SDS011;3250;42.694;23.278;2023-06-10T13:27:31;11.50;;;3.95;;
6434;SDS011;3250;42.694;23.278;2023-06-10T13:29:57;11.00;;;3.35;;
6434;SDS011;3250;42.694;23.278;2023-06-10T13:32:22;8.10;;;3.67;;
6434;SDS011;3250;42.694;23.278;2023-06-10T13:34:48;7.95;;;4.78;;
6434;SDS011;3250;42.694;23.278;2023-06-10T13:37:14;7.43;;;3.22;;
6434;SDS011;3250;42.694;23.278;2023-06-10T13:39:43;5.70;;;3.45;;
6434;SDS011;3250;42.694;23.278;2023-06-10T13:42:09;6.10;;;3.35;;
6434;SDS011;3250;42.694;23.278;2023-06-10T13:44:34;5.25;;;3.65;;
6434;SDS011;3250;42.694;23.278;2023-06-10T13:47:01;4.03;;;3.08;;
6434;SDS011;3250;42.694;23.278;2023-06-10T13:49:27;6.40;;;4.63;;
6434;SDS011;3250;42.694;23.278;2023-06-10T13:51:53;8.27;;;5.70;;
6434;SDS011;3250;42.694;23.278;2023-06-10T13:54:18;6.05;;;4.00;;
6434;SDS011;3250;42.694;23.278;2023-06-10T13:56:44;5.68;;;3.95;;
6434;SDS011;3250;42.694;23.278;2023-06-10T13:59:09;6.28;;;4.18;;
6434;SDS011;3250;42.694;23.278;2023-06-10T14:01:35;4.53;;;3.85;;
6434;SDS011;3250;42.694;23.278;2023-06-10T14:04:00;4.78;;;3.47;;
6434;SDS011;3250;42.694;23.278;2023-06-10T14:06:26;6.07;;;3.75;;
6434;SDS011;3250;42.694;23.278;2023-06-10T14:08:51;6.90;;;4.40;;
6434;SDS011;3250;42.694;23.278;2023-06-10T14:11:19;5.45;;;3.80;;
6434;SDS011;3250;42.694;23.278;2023-06-10T14:13:45;5.72;;;4.03;;
6434;SDS011;3250;42.694;23.278;2023-06-10T14:16:11;7.00;;;3.72;;
6434;SDS011;3250;42.694;23.278;2023-06-10T14:18:37;5.80;;;3.22;;
6434;SDS011;3250;42.694;23.278;2023-06-10T14:21:02;8.50;;;3.97;;
6434;SDS011;3250;42.694;23.278;2023-06-10T14:23:27;6.35;;;3.92;;
6434;SDS011;3250;42.694;23.278;2023-06-10T14:25:53;5.72;;;4.05;;
6434;SDS011;3250;42.694;23.278;2023-06-10T14:28:18;15.55;;;6.35;;
6434;SDS011;3250;42.694;23.278;2023-06-10T14:30:43;8.32;;;4.13;;
6434;SDS011;3250;42.694;23.278;2023-06-10T14:33:09;6.80;;;3.70;;
6434;SDS011;3250;42.694;23.278;2023-06-10T14:35:34;5.05;;;3.60;;
6434;SDS011;3250;42.694;23.278;2023-06-10T14:38:00;4.75;;;3.35;;
6434;SDS011;3250;42.694;23.278;2023-06-10T14:40:25;8.68;;;4.25;;
6434;SDS011;3250;42.694;23.278;2023-06-10T14:42:57;5.55;;;3.70;;
6434;SDS011;3250;42.694;23.278;2023-06-10T14:45:23;8.60;;;4.72;;
6434;SDS011;3250;42.694;23.278;2023-06-10T14:47:50;8.20;;;4.50;;
6434;SDS011;3250;42.694;23.278;2023-06-10T14:50:16;12.65;;;3.83;;
6434;SDS011;3250;42.694;23.278;2023-06-10T14:52:41;7.25;;;3.97;;
6434;SDS011;3250;42.694;23.278;2023-06-10T14:55:07;6.50;;;4.10;;
6434;SDS011;3250;42.694;23.278;2023-06-10T14:57:32;11.93;;;4.63;;
6434;SDS011;3250;42.694;23.278;2023-06-10T14:59:58;4.13;;;3.22;;
6434;SDS011;3250;42.694;23.278;2023-06-10T15:02:23;3.83;;;3.20;;
6434;SDS011;3250;42.694;23.278;2023-06-10T15:04:49;9.02;;;3.40;;
6434;SDS011;3250;42.694;23.278;2023-06-10T15:07:14;6.13;;;3.83;;
6434;SDS011;3250;42.694;23.278;2023-06-10T15:09:40;7.28;;;4.13;;
6434;SDS011;3250;42.694;23.278;2023-06-10T15:12:07;4.38;;;3.45;;
6434;SDS011;3250;42.694;23.278;2023-06-10T15:14:33;10.05;;;4.57;;